sensor_id;sensor_type;location;lat;lon;timestamp;P1;durP1;ratioP1;P2;durP2;ratioP2
20679;SDS011;10499;47.494;7.608;2022-09-09T00:02:20;0.20;;;0.20;;
20679;SDS011;10499;47.494;7.608;2022-09-09T00:05:35;0.10;;;0.10;;
20679;SDS011;10499;47.494;7.608;2022-09-09T00:07:48;0.20;;;0.20;;
20679;SDS011;10499;47.494;7.608;2022-09-09T00:13:11;0.10;;;0.10;;
20679;SDS011;10499;47.494;7.608;2022-09-09T00:21:38;0.15;;;0.15;;
20679;SDS011;10499;47.494;7.608;2022-09-09T00:24:29;0.17;;;0.17;;
20679;SDS011;10499;47.494;7.608;2022-09-09T00:27:18;0.10;;;0.10;;
20679;SDS011;10499;47.494;7.608;2022-09-09T00:30:02;0.17;;;0.17;;
20679;SDS011;10499;47.494;7.608;2022-09-09T00:32:47;0.20;;;0.20;;
20679;SDS011;10499;47.494;7.608;2022-09-09T00:35:20;0.10;;;0.10;;
20679;SDS011;10499;47.494;7.608;2022-09-09T00:37:47;0.10;;;0.10;;
20679;SDS011;10499;47.494;7.608;2022-09-09T00:40:22;0.10;;;0.10;;
20679;SDS011;10499;47.494;7.608;2022-09-09T00:42:48;0.20;;;0.20;;
20679;SDS011;10499;47.494;7.608;2022-09-09T00:45:37;0.10;;;0.10;;
20679;SDS011;10499;47.494;7.608;2022-09-09T00:48:28;0.10;;;0.10;;
20679;SDS011;10499;47.494;7.608;2022-09-09T00:51:11;0.10;;;0.10;;
20679;SDS011;10499;47.494;7.608;2022-09-09T00:56:34;0.10;;;0.10;;
20679;SDS011;10499;47.494;7.608;2022-09-09T00:59:14;0.10;;;0.10;;
20679;SDS011;10499;47.494;7.608;2022-09-09T01:01:53;0.10;;;0.10;;
20679;SDS011;10499;47.494;7.608;2022-09-09T01:04:22;0.10;;;0.10;;
20679;SDS011;10499;47.494;7.608;2022-09-09T01:07:01;0.10;;;0.10;;
20679;SDS011;10499;47.494;7.608;2022-09-09T01:12:14;0.10;;;0.10;;
20679;SDS011;10499;47.494;7.608;2022-09-09T01:14:44;0.10;;;0.10;;
20679;SDS011;10499;47.494;7.608;2022-09-09T01:17:19;0.10;;;0.10;;
20679;SDS011;10499;47.494;7.608;2022-09-09T01:22:36;0.10;;;0.10;;
20679;SDS011;10499;47.494;7.608;2022-09-09T01:27:46;0.10;;;0.10;;
20679;SDS011;10499;47.494;7.608;2022-09-09T01:30:15;0.10;;;0.10;;
20679;SDS011;10499;47.494;7.608;2022-09-09T01:32:47;0.10;;;0.10;;
20679;SDS011;10499;47.494;7.608;2022-09-09T01:35:18;0.10;;;0.10;;
20679;SDS011;10499;47.494;7.608;2022-09-09T01:37:48;0.10;;;0.10;;
20679;SDS011;10499;47.494;7.608;2022-09-09T01:40:13;0.15;;;0.15;;
20679;SDS011;10499;47.494;7.608;2022-09-09T01:42:39;0.10;;;0.10;;
20679;SDS011;10499;47.494;7.608;2022-09-09T01:45:05;0.10;;;0.10;;
20679;SDS011;10499;47.494;7.608;2022-09-09T01:47:31;0.10;;;0.10;;
20679;SDS011;10499;47.494;7.608;2022-09-09T01:49:57;0.10;;;0.10;;
20679;SDS011;10499;47.494;7.608;2022-09-09T01:52:25;0.10;;;0.10;;
20679;SDS011;10499;47.494;7.608;2022-09-09T01:54:51;0.20;;;0.20;;
20679;SDS011;10499;47.494;7.608;2022-09-09T02:02:30;0.17;;;0.17;;
20679;SDS011;10499;47.494;7.608;2022-09-09T02:05:07;0.10;;;0.10;;
20679;SDS011;10499;47.494;7.608;2022-09-09T02:08:19;0.10;;;0.10;;
20679;SDS011;10499;47.494;7.608;2022-09-09T02:10:58;0.10;;;0.10;;
20679;SDS011;10499;47.494;7.608;2022-09-09T02:13:30;0.10;;;0.10;;
20679;SDS011;10499;47.494;7.608;2022-09-09T02:18:51;0.10;;;0.10;;
20679;SDS011;10499;47.494;7.608;2022-09-09T02:21:34;0.10;;;0.10;;
20679;SDS011;10499;47.494;7.608;2022-09-09T02:24:02;0.10;;;0.10;;
20679;SDS011;10499;47.494;7.608;2022-09-09T02:26:30;0.10;;;0.10;;
20679;SDS011;10499;47.494;7.608;2022-09-09T02:28:58;0.10;;;0.10;;
20679;SDS011;10499;47.494;7.608;2022-09-09T02:31:26;0.10;;;0.10;;
20679;SDS011;10499;47.494;7.608;2022-09-09T02:33:54;0.10;;;0.10;;
20679;SDS011;10499;47.494;7.608;2022-09-09T02:36:24;0.10;;;0.10;;
20679;SDS011;10499;47.494;7.608;2022-09-09T02:38:54;0.10;;;0.10;;
20679;SDS011;10499;47.494;7.608;2022-09-09T02:41:22;0.10;;;0.10;;
20679;SDS011;10499;47.494;7.608;2022-09-09T02:43:50;0.10;;;0.10;;
20679;SDS011;10499;47.494;7.608;2022-09-09T02:49:11;0.10;;;0.10;;
20679;SDS011;10499;47.494;7.608;2022-09-09T02:54:41;0.10;;;0.10;;
20679;SDS011;10499;47.494;7.608;2022-09-09T02:57:12;0.10;;;0.10;;
20679;SDS011;10499;47.494;7.608;2022-09-09T02:59:44;0.10;;;0.10;;
20679;SDS011;10499;47.494;7.608;2022-09-09T03:02:11;0.10;;;0.10;;
20679;SDS011;10499;47.494;7.608;2022-09-09T03:04:38;0.10;;;0.10;;
20679;SDS011;10499;47.494;7.608;2022-09-09T03:07:04;0.10;;;0.10;;
20679;SDS011;10499;47.494;7.608;2022-09-09T03:09:30;0.10;;;0.10;;
20679;SDS011;10499;47.494;7.608;2022-09-09T03:11:57;0.10;;;0.10;;
20679;SDS011;10499;47.494;7.608;2022-09-09T03:14:23;0.10;;;0.10;;
20679;SDS011;10499;47.494;7.608;2022-09-09T03:16:52;0.10;;;0.10;;
20679;SDS011;10499;47.494;7.608;2022-09-09T03:19:19;0.10;;;0.10;;
20679;SDS011;10499;47.494;7.608;2022-09-09T03:21:45;0.10;;;0.10;;
20679;SDS011;10499;47.494;7.608;2022-09-09T03:24:12;0.10;;;0.10;;
20679;SDS011;10499;47.494;7.608;2022-09-09T03:26:39;0.20;;;0.20;;
20679;SDS011;10499;47.494;7.608;2022-09-09T03:29:05;0.10;;;0.10;;
20679;SDS011;10499;47.494;7.608;2022-09-09T03:31:32;0.10;;;0.10;;
20679;SDS011;10499;47.494;7.608;2022-09-09T03:33:59;0.10;;;0.10;;
20679;SDS011;10499;47.494;7.608;2022-09-09T03:36:26;0.10;;;0.10;;
20679;SDS011;10499;47.494;7.608;2022-09-09T03:38:52;0.10;;;0.10;;
20679;SDS011;10499;47.494;7.608;2022-09-09T03:41:19;0.10;;;0.10;;
20679;SDS011;10499;47.494;7.608;2022-09-09T03:43:46;0.10;;;0.10;;
20679;SDS011;10499;47.494;7.608;2022-09-09T03:46:11;0.10;;;0.10;;
20679;SDS011;10499;47.494;7.608;2022-09-09T03:48:37;0.10;;;0.10;;
20679;SDS011;10499;47.494;7.608;2022-09-09T03:51:03;0.10;;;0.10;;
20679;SDS011;10499;47.494;7.608;2022-09-09T03:53:29;0.10;;;0.10;;
20679;SDS011;10499;47.494;7.608;2022-09-09T03:55:55;0.10;;;0.10;;
20679;SDS011;10499;47.494;7.608;2022-09-09T03:58:25;0.10;;;0.10;;
20679;SDS011;10499;47.494;7.608;2022-09-09T04:01:02;0.10;;;0.10;;
20679;SDS011;10499;47.494;7.608;2022-09-09T04:03:29;0.10;;;0.10;;
20679;SDS011;10499;47.494;7.608;2022-09-09T04:05:56;0.10;;;0.10;;
20679;SDS011;10499;47.494;7.608;2022-09-09T04:08:23;0.10;;;0.10;;
20679;SDS011;10499;47.494;7.608;2022-09-09T04:10:52;0.10;;;0.10;;
20679;SDS011;10499;47.494;7.608;2022-09-09T04:13:18;0.10;;;0.10;;
20679;SDS011;10499;47.494;7.608;2022-09-09T04:15:50;0.10;;;0.10;;
20679;SDS011;10499;47.494;7.608;2022-09-09T04:18:17;0.13;;;0.13;;
20679;SDS011;10499;47.494;7.608;2022-09-09T04:20:45;0.10;;;0.10;;
20679;SDS011;10499;47.494;7.608;2022-09-09T04:23:15;0.10;;;0.10;;
20679;SDS011;10499;47.494;7.608;2022-09-09T04:25:48;0.10;;;0.10;;
20679;SDS011;10499;47.494;7.608;2022-09-09T04:28:16;0.10;;;0.10;;
20679;SDS011;10499;47.494;7.608;2022-09-09T04:30:43;0.20;;;0.20;;
20679;SDS011;10499;47.494;7.608;2022-09-09T04:33:09;0.10;;;0.10;;
20679;SDS011;10499;47.494;7.608;2022-09-09T04:35:36;0.10;;;0.10;;
20679;SDS011;10499;47.494;7.608;2022-09-09T04:38:03;0.10;;;0.10;;
20679;SDS011;10499;47.494;7.608;2022-09-09T04:40:30;0.10;;;0.10;;
20679;SDS011;10499;47.494;7.608;2022-09-09T04:43:00;0.10;;;0.10;;
20679;SDS011;10499;47.494;7.608;2022-09-09T04:45:28;0.10;;;0.10;;
20679;SDS011;10499;47.494;7.608;2022-09-09T04:47:54;0.10;;;0.10;;
20679;SDS011;10499;47.494;7.608;2022-09-09T04:50:20;0.10;;;0.10;;
20679;SDS011;10499;47.494;7.608;2022-09-09T04:52:46;0.10;;;0.10;;
20679;SDS011;10499;47.494;7.608;2022-09-09T04:55:12;0.10;;;0.10;;
20679;SDS011;10499;47.494;7.608;2022-09-09T04:57:38;0.10;;;0.10;;
20679;SDS011;10499;47.494;7.608;2022-09-09T05:00:04;0.10;;;0.10;;
20679;SDS011;10499;47.494;7.608;2022-09-09T05:02:30;0.20;;;0.20;;
20679;SDS011;10499;47.494;7.608;2022-09-09T05:04:57;0.10;;;0.10;;
20679;SDS011;10499;47.494;7.608;2022-09-09T05:07:23;0.10;;;0.10;;
20679;SDS011;10499;47.494;7.608;2022-09-09T05:09:51;0.10;;;0.10;;
20679;SDS011;10499;47.494;7.608;2022-09-09T05:12:17;0.10;;;0.10;;
20679;SDS011;10499;47.494;7.608;2022-09-09T05:14:43;0.10;;;0.10;;
20679;SDS011;10499;47.494;7.608;2022-09-09T05:17:09;0.10;;;0.10;;
20679;SDS011;10499;47.494;7.608;2022-09-09T05:19:35;0.10;;;0.10;;
20679;SDS011;10499;47.494;7.608;2022-09-09T05:22:01;0.10;;;0.10;;
20679;SDS011;10499;47.494;7.608;2022-09-09T05:24:27;0.10;;;0.10;;
20679;SDS011;10499;47.494;7.608;2022-09-09T05:26:52;0.10;;;0.10;;
20679;SDS011;10499;47.494;7.608;2022-09-09T05:29:18;0.10;;;0.10;;
20679;SDS011;10499;47.494;7.608;2022-09-09T05:31:44;0.20;;;0.20;;
20679;SDS011;10499;47.494;7.608;2022-09-09T05:34:11;0.10;;;0.10;;
20679;SDS011;10499;47.494;7.608;2022-09-09T05:36:37;0.10;;;0.10;;
20679;SDS011;10499;47.494;7.608;2022-09-09T05:39:16;0.10;;;0.10;;
20679;SDS011;10499;47.494;7.608;2022-09-09T05:41:51;0.10;;;0.10;;
20679;SDS011;10499;47.494;7.608;2022-09-09T05:44:16;0.10;;;0.10;;
20679;SDS011;10499;47.494;7.608;2022-09-09T05:46:42;0.10;;;0.10;;
20679;SDS011;10499;47.494;7.608;2022-09-09T05:49:08;0.10;;;0.10;;
20679;SDS011;10499;47.494;7.608;2022-09-09T05:51:33;0.10;;;0.10;;
20679;SDS011;10499;47.494;7.608;2022-09-09T05:53:59;0.10;;;0.10;;
20679;SDS011;10499;47.494;7.608;2022-09-09T05:56:26;0.17;;;0.17;;
20679;SDS011;10499;47.494;7.608;2022-09-09T05:58:53;0.10;;;0.10;;
20679;SDS011;10499;47.494;7.608;2022-09-09T06:01:20;0.10;;;0.10;;
20679;SDS011;10499;47.494;7.608;2022-09-09T06:03:51;0.10;;;0.10;;
20679;SDS011;10499;47.494;7.608;2022-09-09T06:06:21;0.10;;;0.10;;
20679;SDS011;10499;47.494;7.608;2022-09-09T06:08:51;0.10;;;0.10;;
20679;SDS011;10499;47.494;7.608;2022-09-09T06:11:19;0.10;;;0.10;;
20679;SDS011;10499;47.494;7.608;2022-09-09T06:13:46;0.10;;;0.10;;
20679;SDS011;10499;47.494;7.608;2022-09-09T06:16:14;0.10;;;0.10;;
20679;SDS011;10499;47.494;7.608;2022-09-09T06:18:41;0.10;;;0.10;;
20679;SDS011;10499;47.494;7.608;2022-09-09T06:21:13;0.10;;;0.10;;
20679;SDS011;10499;47.494;7.608;2022-09-09T06:23:41;0.10;;;0.10;;
20679;SDS011;10499;47.494;7.608;2022-09-09T06:26:11;0.10;;;0.10;;
20679;SDS011;10499;47.494;7.608;2022-09-09T06:28:37;0.10;;;0.10;;
20679;SDS011;10499;47.494;7.608;2022-09-09T06:31:05;0.10;;;0.10;;
20679;SDS011;10499;47.494;7.608;2022-09-09T06:33:33;0.10;;;0.10;;
20679;SDS011;10499;47.494;7.608;2022-09-09T06:36:00;0.10;;;0.10;;
20679;SDS011;10499;47.494;7.608;2022-09-09T06:38:27;0.10;;;0.10;;
20679;SDS011;10499;47.494;7.608;2022-09-09T06:40:56;0.10;;;0.10;;
20679;SDS011;10499;47.494;7.608;2022-09-09T06:43:24;0.10;;;0.10;;
20679;SDS011;10499;47.494;7.608;2022-09-09T06:48:24;0.10;;;0.10;;
20679;SDS011;10499;47.494;7.608;2022-09-09T06:50:51;0.10;;;0.10;;
20679;SDS011;10499;47.494;7.608;2022-09-09T06:53:25;0.10;;;0.10;;
20679;SDS011;10499;47.494;7.608;2022-09-09T06:55:52;0.10;;;0.10;;
20679;SDS011;10499;47.494;7.608;2022-09-09T06:58:17;0.10;;;0.10;;
20679;SDS011;10499;47.494;7.608;2022-09-09T07:00:43;0.10;;;0.10;;
20679;SDS011;10499;47.494;7.608;2022-09-09T07:03:09;0.10;;;0.10;;
20679;SDS011;10499;47.494;7.608;2022-09-09T07:05:35;0.10;;;0.10;;
20679;SDS011;10499;47.494;7.608;2022-09-09T07:08:02;0.10;;;0.10;;
20679;SDS011;10499;47.494;7.608;2022-09-09T07:10:27;0.10;;;0.10;;
20679;SDS011;10499;47.494;7.608;2022-09-09T07:12:53;0.10;;;0.10;;
20679;SDS011;10499;47.494;7.608;2022-09-09T07:15:19;0.10;;;0.10;;
20679;SDS011;10499;47.494;7.608;2022-09-09T07:17:46;0.15;;;0.15;;
20679;SDS011;10499;47.494;7.608;2022-09-09T07:20:13;0.10;;;0.10;;
20679;SDS011;10499;47.494;7.608;2022-09-09T07:22:39;0.10;;;0.10;;
20679;SDS011;10499;47.494;7.608;2022-09-09T07:25:05;0.10;;;0.10;;
20679;SDS011;10499;47.494;7.608;2022-09-09T07:27:31;0.10;;;0.10;;
20679;SDS011;10499;47.494;7.608;2022-09-09T07:29:57;0.10;;;0.10;;
20679;SDS011;10499;47.494;7.608;2022-09-09T07:32:23;0.10;;;0.10;;
20679;SDS011;10499;47.494;7.608;2022-09-09T07:34:48;0.10;;;0.10;;
20679;SDS011;10499;47.494;7.608;2022-09-09T07:37:15;0.10;;;0.10;;
20679;SDS011;10499;47.494;7.608;2022-09-09T07:39:41;0.10;;;0.10;;
20679;SDS011;10499;47.494;7.608;2022-09-09T07:42:07;0.10;;;0.10;;
20679;SDS011;10499;47.494;7.608;2022-09-09T07:44:34;0.10;;;0.10;;
20679;SDS011;10499;47.494;7.608;2022-09-09T07:47:01;0.10;;;0.10;;
20679;SDS011;10499;47.494;7.608;2022-09-09T07:49:27;0.10;;;0.10;;
20679;SDS011;10499;47.494;7.608;2022-09-09T07:51:53;0.10;;;0.10;;
20679;SDS011;10499;47.494;7.608;2022-09-09T07:54:19;0.10;;;0.10;;
20679;SDS011;10499;47.494;7.608;2022-09-09T07:56:45;0.05;;;0.05;;
20679;SDS011;10499;47.494;7.608;2022-09-09T07:59:11;0.10;;;0.10;;
20679;SDS011;10499;47.494;7.608;2022-09-09T08:01:40;0.10;;;0.10;;
20679;SDS011;10499;47.494;7.608;2022-09-09T08:04:09;0.10;;;0.10;;
20679;SDS011;10499;47.494;7.608;2022-09-09T08:06:40;0.10;;;0.10;;
20679;SDS011;10499;47.494;7.608;2022-09-09T08:09:12;0.10;;;0.10;;
20679;SDS011;10499;47.494;7.608;2022-09-09T08:11:38;0.10;;;0.10;;
20679;SDS011;10499;47.494;7.608;2022-09-09T08:14:05;0.10;;;0.10;;
20679;SDS011;10499;47.494;7.608;2022-09-09T08:16:33;0.10;;;0.10;;
20679;SDS011;10499;47.494;7.608;2022-09-09T08:19:02;0.10;;;0.10;;
20679;SDS011;10499;47.494;7.608;2022-09-09T08:21:30;0.10;;;0.10;;
20679;SDS011;10499;47.494;7.608;2022-09-09T08:23:58;0.10;;;0.10;;
20679;SDS011;10499;47.494;7.608;2022-09-09T08:26:26;0.10;;;0.10;;
20679;SDS011;10499;47.494;7.608;2022-09-09T08:28:54;0.10;;;0.10;;
20679;SDS011;10499;47.494;7.608;2022-09-09T08:31:26;0.00;;;0.00;;
20679;SDS011;10499;47.494;7.608;2022-09-09T08:33:56;0.10;;;0.10;;
20679;SDS011;10499;47.494;7.608;2022-09-09T08:36:28;0.10;;;0.10;;
20679;SDS011;10499;47.494;7.608;2022-09-09T08:38:58;0.10;;;0.10;;
20679;SDS011;10499;47.494;7.608;2022-09-09T09:10:21;0.00;;;0.00;;
20679;SDS011;10499;47.494;7.608;2022-09-09T09:12:51;0.00;;;0.00;;
20679;SDS011;10499;47.494;7.608;2022-09-09T09:15:21;0.00;;;0.00;;
20679;SDS011;10499;47.494;7.608;2022-09-09T09:17:50;0.00;;;0.00;;
20679;SDS011;10499;47.494;7.608;2022-09-09T09:20:16;0.00;;;0.00;;
20679;SDS011;10499;47.494;7.608;2022-09-09T09:23:03;0.00;;;0.00;;
20679;SDS011;10499;47.494;7.608;2022-09-09T09:25:34;0.00;;;0.00;;
20679;SDS011;10499;47.494;7.608;2022-09-09T09:28:17;0.00;;;0.00;;
20679;SDS011;10499;47.494;7.608;2022-09-09T09:30:55;0.00;;;0.00;;
20679;SDS011;10499;47.494;7.608;2022-09-09T09:36:06;0.00;;;0.00;;
20679;SDS011;10499;47.494;7.608;2022-09-09T09:38:33;0.00;;;0.00;;
20679;SDS011;10499;47.494;7.608;2022-09-09T09:41:00;0.00;;;0.00;;
20679;SDS011;10499;47.494;7.608;2022-09-09T09:45:55;0.10;;;0.10;;
20679;SDS011;10499;47.494;7.608;2022-09-09T09:48:23;0.10;;;0.10;;
20679;SDS011;10499;47.494;7.608;2022-09-09T09:55:54;0.00;;;0.00;;
20679;SDS011;10499;47.494;7.608;2022-09-09T09:58:20;0.08;;;0.08;;
20679;SDS011;10499;47.494;7.608;2022-09-09T10:00:49;0.00;;;0.00;;
20679;SDS011;10499;47.494;7.608;2022-09-09T10:03:24;0.00;;;0.00;;
20679;SDS011;10499;47.494;7.608;2022-09-09T10:05:54;0.00;;;0.00;;
20679;SDS011;10499;47.494;7.608;2022-09-09T10:08:26;0.00;;;0.00;;
20679;SDS011;10499;47.494;7.608;2022-09-09T10:13:38;0.00;;;0.00;;
20679;SDS011;10499;47.494;7.608;2022-09-09T10:16:12;0.10;;;0.10;;
20679;SDS011;10499;47.494;7.608;2022-09-09T10:19:01;0.10;;;0.10;;
20679;SDS011;10499;47.494;7.608;2022-09-09T10:27:24;0.10;;;0.10;;
20679;SDS011;10499;47.494;7.608;2022-09-09T10:30:47;0.00;;;0.00;;
20679;SDS011;10499;47.494;7.608;2022-09-09T10:33:32;0.00;;;0.00;;
20679;SDS011;10499;47.494;7.608;2022-09-09T10:36:12;0.00;;;0.00;;
20679;SDS011;10499;47.494;7.608;2022-09-09T10:38:48;0.00;;;0.00;;
20679;SDS011;10499;47.494;7.608;2022-09-09T10:41:25;0.00;;;0.00;;
20679;SDS011;10499;47.494;7.608;2022-09-09T10:46:43;0.20;;;0.20;;
20679;SDS011;10499;47.494;7.608;2022-09-09T10:57:33;0.10;;;0.10;;
20679;SDS011;10499;47.494;7.608;2022-09-09T11:00:27;0.10;;;0.10;;
20679;SDS011;10499;47.494;7.608;2022-09-09T11:03:17;0.00;;;0.00;;
20679;SDS011;10499;47.494;7.608;2022-09-09T11:05:55;0.00;;;0.00;;
20679;SDS011;10499;47.494;7.608;2022-09-09T11:08:30;0.08;;;0.08;;
20679;SDS011;10499;47.494;7.608;2022-09-09T11:11:17;0.10;;;0.10;;
20679;SDS011;10499;47.494;7.608;2022-09-09T11:19:03;0.10;;;0.10;;
20679;SDS011;10499;47.494;7.608;2022-09-09T11:21:41;0.10;;;0.10;;
20679;SDS011;10499;47.494;7.608;2022-09-09T11:24:16;0.10;;;0.10;;
20679;SDS011;10499;47.494;7.608;2022-09-09T11:30:18;0.10;;;0.10;;
20679;SDS011;10499;47.494;7.608;2022-09-09T11:38:14;0.00;;;0.00;;
20679;SDS011;10499;47.494;7.608;2022-09-09T11:40:56;0.00;;;0.00;;
20679;SDS011;10499;47.494;7.608;2022-09-09T11:43:43;0.00;;;0.00;;
20679;SDS011;10499;47.494;7.608;2022-09-09T11:46:11;0.00;;;0.00;;
20679;SDS011;10499;47.494;7.608;2022-09-09T11:51:34;0.00;;;0.00;;
20679;SDS011;10499;47.494;7.608;2022-09-09T11:56:55;0.00;;;0.00;;
20679;SDS011;10499;47.494;7.608;2022-09-09T11:59:22;0.00;;;0.00;;
20679;SDS011;10499;47.494;7.608;2022-09-09T12:07:35;0.00;;;0.00;;
20679;SDS011;10499;47.494;7.608;2022-09-09T12:13:17;0.00;;;0.00;;
20679;SDS011;10499;47.494;7.608;2022-09-09T12:15:54;0.00;;;0.00;;
20679;SDS011;10499;47.494;7.608;2022-09-09T12:18:25;0.10;;;0.10;;
20679;SDS011;10499;47.494;7.608;2022-09-09T12:26:34;0.00;;;0.00;;
20679;SDS011;10499;47.494;7.608;2022-09-09T12:31:50;0.00;;;0.00;;
20679;SDS011;10499;47.494;7.608;2022-09-09T12:34:36;0.10;;;0.10;;
20679;SDS011;10499;47.494;7.608;2022-09-09T12:37:06;0.00;;;0.00;;
20679;SDS011;10499;47.494;7.608;2022-09-09T12:39:47;0.00;;;0.00;;
20679;SDS011;10499;47.494;7.608;2022-09-09T12:42:22;0.00;;;0.00;;
20679;SDS011;10499;47.494;7.608;2022-09-09T12:44:59;0.00;;;0.00;;
20679;SDS011;10499;47.494;7.608;2022-09-09T12:47:29;0.00;;;0.00;;
20679;SDS011;10499;47.494;7.608;2022-09-09T12:49:56;0.00;;;0.00;;
20679;SDS011;10499;47.494;7.608;2022-09-09T12:55:15;0.10;;;0.10;;
20679;SDS011;10499;47.494;7.608;2022-09-09T12:57:44;0.00;;;0.00;;
20679;SDS011;10499;47.494;7.608;2022-09-09T13:00:48;0.00;;;0.00;;
20679;SDS011;10499;47.494;7.608;2022-09-09T13:03:17;0.00;;;0.00;;
20679;SDS011;10499;47.494;7.608;2022-09-09T13:05:46;0.10;;;0.10;;
20679;SDS011;10499;47.494;7.608;2022-09-09T13:08:13;0.10;;;0.10;;
20679;SDS011;10499;47.494;7.608;2022-09-09T13:10:41;0.10;;;0.10;;
20679;SDS011;10499;47.494;7.608;2022-09-09T13:13:15;0.10;;;0.10;;
20679;SDS011;10499;47.494;7.608;2022-09-09T13:15:49;0.10;;;0.10;;
20679;SDS011;10499;47.494;7.608;2022-09-09T13:18:17;0.10;;;0.10;;
20679;SDS011;10499;47.494;7.608;2022-09-09T13:20:49;0.00;;;0.00;;
20679;SDS011;10499;47.494;7.608;2022-09-09T13:23:17;0.00;;;0.00;;
20679;SDS011;10499;47.494;7.608;2022-09-09T13:25:54;0.00;;;0.00;;
20679;SDS011;10499;47.494;7.608;2022-09-09T13:28:22;0.00;;;0.00;;
20679;SDS011;10499;47.494;7.608;2022-09-09T13:30:57;0.00;;;0.00;;
20679;SDS011;10499;47.494;7.608;2022-09-09T13:33:29;0.00;;;0.00;;
20679;SDS011;10499;47.494;7.608;2022-09-09T13:35:57;0.00;;;0.00;;
20679;SDS011;10499;47.494;7.608;2022-09-09T13:38:28;0.00;;;0.00;;
20679;SDS011;10499;47.494;7.608;2022-09-09T13:44:02;0.00;;;0.00;;
20679;SDS011;10499;47.494;7.608;2022-09-09T13:49:01;0.10;;;0.10;;
20679;SDS011;10499;47.494;7.608;2022-09-09T13:51:44;0.00;;;0.00;;
20679;SDS011;10499;47.494;7.608;2022-09-09T13:54:16;0.00;;;0.00;;
20679;SDS011;10499;47.494;7.608;2022-09-09T13:56:43;0.00;;;0.00;;
20679;SDS011;10499;47.494;7.608;2022-09-09T13:59:17;0.00;;;0.00;;
20679;SDS011;10499;47.494;7.608;2022-09-09T14:01:44;0.00;;;0.00;;
20679;SDS011;10499;47.494;7.608;2022-09-09T14:04:11;0.00;;;0.00;;
20679;SDS011;10499;47.494;7.608;2022-09-09T14:06:37;0.00;;;0.00;;
20679;SDS011;10499;47.494;7.608;2022-09-09T14:09:09;0.00;;;0.00;;
20679;SDS011;10499;47.494;7.608;2022-09-09T14:11:36;0.00;;;0.00;;
20679;SDS011;10499;47.494;7.608;2022-09-09T14:14:02;0.00;;;0.00;;
20679;SDS011;10499;47.494;7.608;2022-09-09T14:16:28;0.00;;;0.00;;
20679;SDS011;10499;47.494;7.608;2022-09-09T14:18:54;0.00;;;0.00;;
20679;SDS011;10499;47.494;7.608;2022-09-09T14:21:24;0.00;;;0.00;;
20679;SDS011;10499;47.494;7.608;2022-09-09T14:23:50;0.00;;;0.00;;
20679;SDS011;10499;47.494;7.608;2022-09-09T14:26:16;0.00;;;0.00;;
20679;SDS011;10499;47.494;7.608;2022-09-09T14:28:45;0.00;;;0.00;;
20679;SDS011;10499;47.494;7.608;2022-09-09T14:31:11;0.00;;;0.00;;
20679;SDS011;10499;47.494;7.608;2022-09-09T14:33:38;0.00;;;0.00;;
20679;SDS011;10499;47.494;7.608;2022-09-09T14:36:04;0.00;;;0.00;;
20679;SDS011;10499;47.494;7.608;2022-09-09T14:38:31;0.00;;;0.00;;
20679;SDS011;10499;47.494;7.608;2022-09-09T14:40:58;0.00;;;0.00;;
20679;SDS011;10499;47.494;7.608;2022-09-09T14:43:24;0.00;;;0.00;;
20679;SDS011;10499;47.494;7.608;2022-09-09T14:45:51;0.00;;;0.00;;
20679;SDS011;10499;47.494;7.608;2022-09-09T14:48:17;0.00;;;0.00;;
20679;SDS011;10499;47.494;7.608;2022-09-09T14:50:43;0.00;;;0.00;;
20679;SDS011;10499;47.494;7.608;2022-09-09T14:53:08;0.00;;;0.00;;
20679;SDS011;10499;47.494;7.608;2022-09-09T14:55:35;0.00;;;0.00;;
20679;SDS011;10499;47.494;7.608;2022-09-09T14:58:01;0.00;;;0.00;;
20679;SDS011;10499;47.494;7.608;2022-09-09T15:03:02;0.00;;;0.00;;
20679;SDS011;10499;47.494;7.608;2022-09-09T15:05:28;0.00;;;0.00;;
20679;SDS011;10499;47.494;7.608;2022-09-09T15:07:53;0.00;;;0.00;;
20679;SDS011;10499;47.494;7.608;2022-09-09T15:10:19;0.00;;;0.00;;
20679;SDS011;10499;47.494;7.608;2022-09-09T15:12:45;0.03;;;0.03;;
20679;SDS011;10499;47.494;7.608;2022-09-09T15:15:11;0.00;;;0.00;;
20679;SDS011;10499;47.494;7.608;2022-09-09T15:17:37;0.00;;;0.00;;
20679;SDS011;10499;47.494;7.608;2022-09-09T15:20:03;0.00;;;0.00;;
20679;SDS011;10499;47.494;7.608;2022-09-09T15:22:31;0.00;;;0.00;;
20679;SDS011;10499;47.494;7.608;2022-09-09T15:24:56;0.00;;;0.00;;
20679;SDS011;10499;47.494;7.608;2022-09-09T15:27:22;0.00;;;0.00;;
20679;SDS011;10499;47.494;7.608;2022-09-09T15:29:48;0.00;;;0.00;;
20679;SDS011;10499;47.494;7.608;2022-09-09T15:32:15;0.00;;;0.00;;
20679;SDS011;10499;47.494;7.608;2022-09-09T15:34:41;0.00;;;0.00;;
20679;SDS011;10499;47.494;7.608;2022-09-09T15:37:09;0.10;;;0.10;;
20679;SDS011;10499;47.494;7.608;2022-09-09T15:39:37;0.00;;;0.00;;
20679;SDS011;10499;47.494;7.608;2022-09-09T15:42:06;0.10;;;0.10;;
20679;SDS011;10499;47.494;7.608;2022-09-09T15:44:41;0.10;;;0.10;;
20679;SDS011;10499;47.494;7.608;2022-09-09T15:47:07;0.00;;;0.00;;
20679;SDS011;10499;47.494;7.608;2022-09-09T15:49:36;0.10;;;0.10;;
20679;SDS011;10499;47.494;7.608;2022-09-09T15:52:03;0.05;;;0.05;;
20679;SDS011;10499;47.494;7.608;2022-09-09T15:54:31;0.00;;;0.00;;
20679;SDS011;10499;47.494;7.608;2022-09-09T15:56:59;0.00;;;0.00;;
20679;SDS011;10499;47.494;7.608;2022-09-09T15:59:27;0.00;;;0.00;;
20679;SDS011;10499;47.494;7.608;2022-09-09T16:01:53;0.00;;;0.00;;
20679;SDS011;10499;47.494;7.608;2022-09-09T16:04:20;0.10;;;0.10;;
20679;SDS011;10499;47.494;7.608;2022-09-09T16:06:53;0.10;;;0.10;;
20679;SDS011;10499;47.494;7.608;2022-09-09T16:09:23;0.10;;;0.10;;
20679;SDS011;10499;47.494;7.608;2022-09-09T16:11:49;0.10;;;0.10;;
20679;SDS011;10499;47.494;7.608;2022-09-09T16:14:17;0.10;;;0.10;;
20679;SDS011;10499;47.494;7.608;2022-09-09T16:16:42;0.10;;;0.10;;
20679;SDS011;10499;47.494;7.608;2022-09-09T16:19:09;0.10;;;0.10;;
20679;SDS011;10499;47.494;7.608;2022-09-09T16:21:43;0.10;;;0.10;;
20679;SDS011;10499;47.494;7.608;2022-09-09T16:24:14;0.00;;;0.00;;
20679;SDS011;10499;47.494;7.608;2022-09-09T16:26:43;0.10;;;0.10;;
20679;SDS011;10499;47.494;7.608;2022-09-09T16:29:11;0.10;;;0.10;;
20679;SDS011;10499;47.494;7.608;2022-09-09T16:31:38;0.10;;;0.10;;
20679;SDS011;10499;47.494;7.608;2022-09-09T16:34:05;0.10;;;0.10;;
20679;SDS011;10499;47.494;7.608;2022-09-09T16:36:32;0.10;;;0.10;;
20679;SDS011;10499;47.494;7.608;2022-09-09T16:39:01;0.10;;;0.10;;
20679;SDS011;10499;47.494;7.608;2022-09-09T16:41:31;0.10;;;0.10;;
20679;SDS011;10499;47.494;7.608;2022-09-09T16:43:59;0.10;;;0.10;;
20679;SDS011;10499;47.494;7.608;2022-09-09T16:46:27;0.10;;;0.10;;
20679;SDS011;10499;47.494;7.608;2022-09-09T16:48:55;0.10;;;0.10;;
20679;SDS011;10499;47.494;7.608;2022-09-09T16:51:30;0.10;;;0.10;;
20679;SDS011;10499;47.494;7.608;2022-09-09T16:53:58;0.10;;;0.10;;
20679;SDS011;10499;47.494;7.608;2022-09-09T16:56:26;0.10;;;0.10;;
20679;SDS011;10499;47.494;7.608;2022-09-09T16:58:54;0.10;;;0.10;;
20679;SDS011;10499;47.494;7.608;2022-09-09T17:12:06;0.10;;;0.10;;
20679;SDS011;10499;47.494;7.608;2022-09-09T17:14:33;0.10;;;0.10;;
20679;SDS011;10499;47.494;7.608;2022-09-09T17:16:59;0.10;;;0.10;;
20679;SDS011;10499;47.494;7.608;2022-09-09T17:19:25;0.10;;;0.10;;
20679;SDS011;10499;47.494;7.608;2022-09-09T17:21:51;0.10;;;0.10;;
20679;SDS011;10499;47.494;7.608;2022-09-09T17:24:17;0.10;;;0.10;;
20679;SDS011;10499;47.494;7.608;2022-09-09T17:26:42;0.10;;;0.10;;
20679;SDS011;10499;47.494;7.608;2022-09-09T17:29:09;0.10;;;0.10;;
20679;SDS011;10499;47.494;7.608;2022-09-09T17:31:49;0.10;;;0.10;;
20679;SDS011;10499;47.494;7.608;2022-09-09T17:34:34;0.10;;;0.10;;
20679;SDS011;10499;47.494;7.608;2022-09-09T17:37:00;0.10;;;0.10;;
20679;SDS011;10499;47.494;7.608;2022-09-09T17:39:26;0.10;;;0.10;;